sensor_id;sensor_type;location;lat;lon;timestamp;pressure;altitude;pressure_sealevel;temperature;humidity
62031;BME280;62035;52.094;5.112;2023-01-20T00:01:43;101160.38;;;2.57;100.00
62031;BME280;62035;52.094;5.112;2023-01-20T00:04:13;101151.22;;;2.79;100.00
62031;BME280;62035;52.094;5.112;2023-01-20T00:06:44;101154.31;;;2.85;100.00
62031;BME280;62035;52.094;5.112;2023-01-20T00:09:14;101156.34;;;2.80;100.00
62031;BME280;62035;52.094;5.112;2023-01-20T00:11:42;101150.28;;;2.80;100.00
62031;BME280;62035;52.094;5.112;2023-01-20T00:14:11;101148.19;;;2.71;100.00
62031;BME280;62035;52.094;5.112;2023-01-20T00:16:38;101154.88;;;2.76;100.00
62031;BME280;62035;52.094;5.112;2023-01-20T00:19:08;101160.75;;;2.65;100.00
62031;BME280;62035;52.094;5.112;2023-01-20T00:21:39;101154.75;;;2.63;100.00
62031;BME280;62035;52.094;5.112;2023-01-20T00:24:07;101163.94;;;2.56;100.00
62031;BME280;62035;52.094;5.112;2023-01-20T00:26:35;101159.06;;;2.64;100.00
62031;BME280;62035;52.094;5.112;2023-01-20T00:29:03;101169.50;;;2.66;100.00
62031;BME280;62035;52.094;5.112;2023-01-20T00:31:30;101160.13;;;2.76;100.00
62031;BME280;62035;52.094;5.112;2023-01-20T00:33:59;101159.91;;;2.65;100.00
62031;BME280;62035;52.094;5.112;2023-01-20T00:36:30;101150.56;;;2.45;100.00
62031;BME280;62035;52.094;5.112;2023-01-20T00:39:00;101158.63;;;2.42;100.00
62031;BME280;62035;52.094;5.112;2023-01-20T00:41:29;101163.13;;;2.40;100.00
62031;BME280;62035;52.094;5.112;2023-01-20T00:43:56;101166.16;;;2.48;100.00
62031;BME280;62035;52.094;5.112;2023-01-20T00:46:24;101167.56;;;2.40;100.00
62031;BME280;62035;52.094;5.112;2023-01-20T00:48:52;101166.91;;;2.50;100.00
62031;BME280;62035;52.094;5.112;2023-01-20T00:51:20;101173.00;;;2.51;100.00
62031;BME280;62035;52.094;5.112;2023-01-20T00:53:49;101165.72;;;2.56;100.00
62031;BME280;62035;52.094;5.112;2023-01-20T00:56:16;101169.41;;;2.67;100.00
62031;BME280;62035;52.094;5.112;2023-01-20T00:58:44;101178.63;;;2.75;100.00
62031;BME280;62035;52.094;5.112;2023-01-20T01:01:12;101172.25;;;2.79;100.00
62031;BME280;62035;52.094;5.112;2023-01-20T01:03:39;101179.75;;;2.71;100.00
62031;BME280;62035;52.094;5.112;2023-01-20T01:06:09;101182.19;;;2.74;100.00
62031;BME280;62035;52.094;5.112;2023-01-20T01:08:38;101185.28;;;2.80;100.00
62031;BME280;62035;52.094;5.112;2023-01-20T01:11:08;101185.66;;;2.74;100.00
62031;BME280;62035;52.094;5.112;2023-01-20T01:13:37;101191.66;;;2.76;100.00
62031;BME280;62035;52.094;5.112;2023-01-20T01:16:09;101194.41;;;2.89;100.00
62031;BME280;62035;52.094;5.112;2023-01-20T01:18:38;101191.75;;;2.89;100.00
62031;BME280;62035;52.094;5.112;2023-01-20T01:21:07;101183.13;;;2.87;100.00
62031;BME280;62035;52.094;5.112;2023-01-20T01:23:36;101187.34;;;2.75;100.00
62031;BME280;62035;52.094;5.112;2023-01-20T01:26:04;101198.06;;;2.86;100.00
62031;BME280;62035;52.094;5.112;2023-01-20T01:28:33;101187.84;;;2.52;100.00
62031;BME280;62035;52.094;5.112;2023-01-20T01:31:02;101200.22;;;2.50;100.00
62031;BME280;62035;52.094;5.112;2023-01-20T01:33:31;101199.91;;;2.40;100.00
62031;BME280;62035;52.094;5.112;2023-01-20T01:36:00;101206.50;;;2.47;100.00
62031;BME280;62035;52.094;5.112;2023-01-20T01:38:29;101207.59;;;2.43;100.00
62031;BME280;62035;52.094;5.112;2023-01-20T01:40:57;101207.34;;;2.48;100.00
62031;BME280;62035;52.094;5.112;2023-01-20T01:43:25;101212.47;;;2.35;100.00
62031;BME280;62035;52.094;5.112;2023-01-20T01:45:56;101217.34;;;2.41;100.00
62031;BME280;62035;52.094;5.112;2023-01-20T01:48:27;101212.94;;;2.42;100.00
62031;BME280;62035;52.094;5.112;2023-01-20T01:51:02;101217.31;;;2.27;100.00
62031;BME280;62035;52.094;5.112;2023-01-20T01:53:38;101218.06;;;2.29;100.00
62031;BME280;62035;52.094;5.112;2023-01-20T01:56:10;101227.22;;;2.22;100.00
62031;BME280;62035;52.094;5.112;2023-01-20T01:58:42;101219.00;;;2.28;100.00
62031;BME280;62035;52.094;5.112;2023-01-20T02:01:16;101229.19;;;2.48;100.00
62031;BME280;62035;52.094;5.112;2023-01-20T02:03:50;101218.03;;;2.45;100.00
62031;BME280;62035;52.094;5.112;2023-01-20T02:06:25;101227.50;;;2.47;100.00
62031;BME280;62035;52.094;5.112;2023-01-20T02:08:59;101217.59;;;2.52;100.00
62031;BME280;62035;52.094;5.112;2023-01-20T02:11:29;101218.41;;;2.39;100.00
62031;BME280;62035;52.094;5.112;2023-01-20T02:14:01;101218.75;;;2.32;100.00
62031;BME280;62035;52.094;5.112;2023-01-20T02:16:39;101219.94;;;2.27;100.00
62031;BME280;62035;52.094;5.112;2023-01-20T02:19:45;101218.81;;;2.31;100.00
62031;BME280;62035;52.094;5.112;2023-01-20T02:22:35;101222.56;;;2.27;100.00
62031;BME280;62035;52.094;5.112;2023-01-20T02:25:37;101217.91;;;2.32;100.00
62031;BME280;62035;52.094;5.112;2023-01-20T02:34:42;101224.84;;;2.17;100.00
62031;BME280;62035;52.094;5.112;2023-01-20T02:37:17;101220.03;;;2.25;100.00
62031;BME280;62035;52.094;5.112;2023-01-20T02:39:55;101219.09;;;2.11;100.00
62031;BME280;62035;52.094;5.112;2023-01-20T02:42:37;101230.09;;;2.17;100.00
62031;BME280;62035;52.094;5.112;2023-01-20T02:45:12;101222.59;;;1.95;100.00
62031;BME280;62035;52.094;5.112;2023-01-20T02:47:55;101223.75;;;2.06;100.00
62031;BME280;62035;52.094;5.112;2023-01-20T02:50:35;101218.03;;;1.99;100.00
62031;BME280;62035;52.094;5.112;2023-01-20T02:53:10;101216.91;;;1.87;100.00
62031;BME280;62035;52.094;5.112;2023-01-20T02:55:44;101226.16;;;1.94;100.00
62031;BME280;62035;52.094;5.112;2023-01-20T02:58:17;101230.03;;;1.87;100.00
62031;BME280;62035;52.094;5.112;2023-01-20T03:00:52;101224.00;;;2.01;100.00
62031;BME280;62035;52.094;5.112;2023-01-20T03:03:28;101231.78;;;2.03;100.00
62031;BME280;62035;52.094;5.112;2023-01-20T03:06:01;101233.00;;;1.97;100.00
62031;BME280;62035;52.094;5.112;2023-01-20T03:08:33;101222.22;;;2.01;100.00
62031;BME280;62035;52.094;5.112;2023-01-20T03:11:05;101223.69;;;1.91;100.00
62031;BME280;62035;52.094;5.112;2023-01-20T03:13:39;101241.53;;;2.00;100.00
62031;BME280;62035;52.094;5.112;2023-01-20T03:16:14;101233.09;;;1.95;100.00
62031;BME280;62035;52.094;5.112;2023-01-20T03:18:47;101234.34;;;2.04;100.00
62031;BME280;62035;52.094;5.112;2023-01-20T03:21:16;101229.97;;;1.89;100.00
62031;BME280;62035;52.094;5.112;2023-01-20T03:23:48;101239.50;;;2.06;100.00
62031;BME280;62035;52.094;5.112;2023-01-20T03:26:20;101232.66;;;2.19;100.00
62031;BME280;62035;52.094;5.112;2023-01-20T03:28:49;101233.75;;;2.15;100.00
62031;BME280;62035;52.094;5.112;2023-01-20T03:31:20;101227.31;;;2.20;100.00
62031;BME280;62035;52.094;5.112;2023-01-20T03:33:55;101227.81;;;2.27;100.00
62031;BME280;62035;52.094;5.112;2023-01-20T03:36:27;101230.19;;;2.31;100.00
62031;BME280;62035;52.094;5.112;2023-01-20T03:38:58;101234.50;;;2.32;100.00
62031;BME280;62035;52.094;5.112;2023-01-20T03:41:35;101227.38;;;2.34;100.00
62031;BME280;62035;52.094;5.112;2023-01-20T03:44:15;101232.41;;;2.53;100.00
62031;BME280;62035;52.094;5.112;2023-01-20T03:46:51;101226.91;;;2.42;100.00
62031;BME280;62035;52.094;5.112;2023-01-20T03:49:28;101226.78;;;2.29;100.00
62031;BME280;62035;52.094;5.112;2023-01-20T03:52:04;101229.13;;;2.50;100.00
62031;BME280;62035;52.094;5.112;2023-01-20T03:54:44;101233.78;;;2.45;100.00
62031;BME280;62035;52.094;5.112;2023-01-20T03:57:19;101227.56;;;2.31;100.00
62031;BME280;62035;52.094;5.112;2023-01-20T03:59:53;101227.50;;;2.47;100.00
62031;BME280;62035;52.094;5.112;2023-01-20T04:02:22;101228.91;;;2.07;100.00
62031;BME280;62035;52.094;5.112;2023-01-20T04:04:55;101235.00;;;2.23;100.00
62031;BME280;62035;52.094;5.112;2023-01-20T04:07:25;101235.53;;;2.14;100.00
62031;BME280;62035;52.094;5.112;2023-01-20T04:09:56;101239.41;;;2.07;100.00
62031;BME280;62035;52.094;5.112;2023-01-20T04:12:29;101247.47;;;2.04;100.00
62031;BME280;62035;52.094;5.112;2023-01-20T04:14:56;101249.69;;;1.96;100.00
62031;BME280;62035;52.094;5.112;2023-01-20T04:17:26;101249.59;;;2.29;100.00
62031;BME280;62035;52.094;5.112;2023-01-20T04:19:56;101254.59;;;2.33;100.00
62031;BME280;62035;52.094;5.112;2023-01-20T04:22:30;101253.66;;;2.34;100.00
62031;BME280;62035;52.094;5.112;2023-01-20T04:25:08;101254.31;;;2.22;100.00
62031;BME280;62035;52.094;5.112;2023-01-20T04:27:41;101251.38;;;2.28;100.00
62031;BME280;62035;52.094;5.112;2023-01-20T04:30:11;101257.81;;;2.23;100.00
62031;BME280;62035;52.094;5.112;2023-01-20T04:32:39;101247.88;;;2.12;100.00
62031;BME280;62035;52.094;5.112;2023-01-20T04:35:09;101252.28;;;2.27;100.00
62031;BME280;62035;52.094;5.112;2023-01-20T04:37:39;101259.38;;;2.41;100.00
62031;BME280;62035;52.094;5.112;2023-01-20T04:40:08;101255.94;;;2.25;100.00
62031;BME280;62035;52.094;5.112;2023-01-20T04:42:37;101271.94;;;2.20;100.00
62031;BME280;62035;52.094;5.112;2023-01-20T04:45:05;101261.66;;;2.47;100.00
62031;BME280;62035;52.094;5.112;2023-01-20T04:47:33;101268.84;;;2.44;100.00
62031;BME280;62035;52.094;5.112;2023-01-20T04:50:01;101264.75;;;2.40;100.00
62031;BME280;62035;52.094;5.112;2023-01-20T04:52:30;101266.38;;;2.56;100.00
62031;BME280;62035;52.094;5.112;2023-01-20T04:54:57;101262.63;;;2.76;100.00
62031;BME280;62035;52.094;5.112;2023-01-20T04:57:25;101266.19;;;2.29;100.00
62031;BME280;62035;52.094;5.112;2023-01-20T04:59:53;101266.38;;;2.56;100.00
62031;BME280;62035;52.094;5.112;2023-01-20T05:02:20;101258.16;;;2.62;100.00
62031;BME280;62035;52.094;5.112;2023-01-20T05:04:48;101263.31;;;2.34;100.00
62031;BME280;62035;52.094;5.112;2023-01-20T05:07:15;101268.00;;;2.59;100.00
62031;BME280;62035;52.094;5.112;2023-01-20T05:09:44;101270.88;;;2.54;100.00
62031;BME280;62035;52.094;5.112;2023-01-20T05:12:12;101266.44;;;2.71;100.00
62031;BME280;62035;52.094;5.112;2023-01-20T05:14:39;101275.72;;;2.62;100.00
62031;BME280;62035;52.094;5.112;2023-01-20T05:17:07;101277.63;;;2.74;100.00
62031;BME280;62035;52.094;5.112;2023-01-20T05:19:34;101268.34;;;3.13;100.00
62031;BME280;62035;52.094;5.112;2023-01-20T05:22:02;101270.81;;;2.86;100.00
62031;BME280;62035;52.094;5.112;2023-01-20T05:24:30;101267.59;;;2.81;100.00
62031;BME280;62035;52.094;5.112;2023-01-20T05:27:00;101274.63;;;2.80;100.00
62031;BME280;62035;52.094;5.112;2023-01-20T05:29:28;101264.88;;;2.82;100.00
62031;BME280;62035;52.094;5.112;2023-01-20T05:31:55;101272.13;;;2.93;100.00
62031;BME280;62035;52.094;5.112;2023-01-20T05:34:23;101271.34;;;2.77;100.00
62031;BME280;62035;52.094;5.112;2023-01-20T05:36:51;101272.31;;;2.90;100.00
62031;BME280;62035;52.094;5.112;2023-01-20T05:39:20;101264.34;;;2.91;100.00
62031;BME280;62035;52.094;5.112;2023-01-20T05:41:47;101267.19;;;3.03;100.00
62031;BME280;62035;52.094;5.112;2023-01-20T05:44:17;101263.06;;;2.68;100.00
62031;BME280;62035;52.094;5.112;2023-01-20T05:46:44;101275.28;;;2.70;100.00
62031;BME280;62035;52.094;5.112;2023-01-20T05:49:12;101275.81;;;2.45;100.00
62031;BME280;62035;52.094;5.112;2023-01-20T05:51:40;101273.41;;;2.72;100.00
62031;BME280;62035;52.094;5.112;2023-01-20T05:54:07;101285.53;;;2.74;100.00
62031;BME280;62035;52.094;5.112;2023-01-20T05:56:35;101287.13;;;2.77;100.00
62031;BME280;62035;52.094;5.112;2023-01-20T05:59:03;101294.84;;;2.64;100.00
62031;BME280;62035;52.094;5.112;2023-01-20T06:01:32;101293.16;;;2.63;100.00
62031;BME280;62035;52.094;5.112;2023-01-20T06:04:00;101289.50;;;2.65;100.00
62031;BME280;62035;52.094;5.112;2023-01-20T06:06:27;101300.22;;;2.47;100.00
62031;BME280;62035;52.094;5.112;2023-01-20T06:08:55;101289.41;;;2.37;100.00
62031;BME280;62035;52.094;5.112;2023-01-20T06:11:23;101294.13;;;2.30;100.00
62031;BME280;62035;52.094;5.112;2023-01-20T06:13:50;101297.78;;;2.28;100.00
62031;BME280;62035;52.094;5.112;2023-01-20T06:16:18;101291.34;;;2.18;100.00
62031;BME280;62035;52.094;5.112;2023-01-20T06:18:47;101283.28;;;2.05;100.00
62031;BME280;62035;52.094;5.112;2023-01-20T06:21:15;101299.97;;;2.20;100.00
62031;BME280;62035;52.094;5.112;2023-01-20T06:23:42;101300.00;;;2.36;100.00
62031;BME280;62035;52.094;5.112;2023-01-20T06:26:11;101303.03;;;2.12;100.00
62031;BME280;62035;52.094;5.112;2023-01-20T06:28:40;101292.78;;;2.23;100.00
62031;BME280;62035;52.094;5.112;2023-01-20T06:31:09;101294.44;;;2.56;100.00
62031;BME280;62035;52.094;5.112;2023-01-20T06:33:38;101288.50;;;2.52;100.00
62031;BME280;62035;52.094;5.112;2023-01-20T06:36:08;101294.22;;;2.13;100.00
62031;BME280;62035;52.094;5.112;2023-01-20T06:38:38;101305.56;;;2.14;100.00
62031;BME280;62035;52.094;5.112;2023-01-20T06:41:07;101297.06;;;2.40;100.00
62031;BME280;62035;52.094;5.112;2023-01-20T06:43:41;101302.09;;;2.13;100.00
62031;BME280;62035;52.094;5.112;2023-01-20T06:46:11;101297.63;;;1.99;100.00
62031;BME280;62035;52.094;5.112;2023-01-20T06:48:40;101292.97;;;2.36;100.00
62031;BME280;62035;52.094;5.112;2023-01-20T06:51:11;101301.50;;;2.24;100.00
62031;BME280;62035;52.094;5.112;2023-01-20T06:53:41;101292.63;;;2.26;100.00
62031;BME280;62035;52.094;5.112;2023-01-20T06:56:09;101291.06;;;2.54;100.00
62031;BME280;62035;52.094;5.112;2023-01-20T06:58:39;101303.09;;;2.42;100.00
62031;BME280;62035;52.094;5.112;2023-01-20T07:01:09;101299.28;;;2.63;100.00
62031;BME280;62035;52.094;5.112;2023-01-20T07:03:40;101304.31;;;2.37;100.00
62031;BME280;62035;52.094;5.112;2023-01-20T07:06:15;101303.34;;;2.53;100.00
62031;BME280;62035;52.094;5.112;2023-01-20T07:08:45;101314.44;;;2.58;100.00
62031;BME280;62035;52.094;5.112;2023-01-20T07:11:12;101310.56;;;2.34;100.00
62031;BME280;62035;52.094;5.112;2023-01-20T07:13:40;101316.72;;;2.49;100.00
62031;BME280;62035;52.094;5.112;2023-01-20T07:16:08;101310.28;;;2.54;100.00
62031;BME280;62035;52.094;5.112;2023-01-20T07:18:36;101311.66;;;2.46;100.00
62031;BME280;62035;52.094;5.112;2023-01-20T07:21:05;101308.16;;;2.77;100.00
62031;BME280;62035;52.094;5.112;2023-01-20T07:23:34;101324.09;;;2.58;100.00
62031;BME280;62035;52.094;5.112;2023-01-20T07:26:03;101316.25;;;2.88;100.00
62031;BME280;62035;52.094;5.112;2023-01-20T07:28:33;101324.63;;;2.64;100.00
62031;BME280;62035;52.094;5.112;2023-01-20T07:31:02;101326.91;;;2.71;100.00
62031;BME280;62035;52.094;5.112;2023-01-20T07:33:31;101312.66;;;2.75;100.00
62031;BME280;62035;52.094;5.112;2023-01-20T07:35:59;101319.09;;;2.99;100.00
62031;BME280;62035;52.094;5.112;2023-01-20T07:38:27;101318.19;;;2.84;100.00
62031;BME280;62035;52.094;5.112;2023-01-20T07:40:57;101331.38;;;2.68;100.00
62031;BME280;62035;52.094;5.112;2023-01-20T07:43:26;101333.03;;;2.85;100.00
62031;BME280;62035;52.094;5.112;2023-01-20T07:45:54;101332.75;;;3.06;100.00
62031;BME280;62035;52.094;5.112;2023-01-20T07:48:22;101329.47;;;2.86;100.00
62031;BME280;62035;52.094;5.112;2023-01-20T07:50:54;101345.66;;;2.94;100.00
62031;BME280;62035;52.094;5.112;2023-01-20T07:53:27;101344.78;;;2.80;100.00
62031;BME280;62035;52.094;5.112;2023-01-20T07:55:59;101348.63;;;2.88;100.00
62031;BME280;62035;52.094;5.112;2023-01-20T07:58:27;101354.81;;;2.87;100.00
62031;BME280;62035;52.094;5.112;2023-01-20T08:00:55;101354.44;;;2.79;100.00
62031;BME280;62035;52.094;5.112;2023-01-20T08:03:23;101348.97;;;2.98;100.00
62031;BME280;62035;52.094;5.112;2023-01-20T08:05:51;101356.09;;;2.80;100.00
62031;BME280;62035;52.094;5.112;2023-01-20T08:08:19;101352.00;;;2.60;100.00
62031;BME280;62035;52.094;5.112;2023-01-20T08:10:52;101350.53;;;2.71;100.00
62031;BME280;62035;52.094;5.112;2023-01-20T08:13:21;101352.31;;;2.70;100.00
62031;BME280;62035;52.094;5.112;2023-01-20T08:15:48;101359.81;;;2.92;100.00
62031;BME280;62035;52.094;5.112;2023-01-20T08:18:16;101358.34;;;2.72;100.00
62031;BME280;62035;52.094;5.112;2023-01-20T08:20:44;101365.44;;;2.86;100.00
62031;BME280;62035;52.094;5.112;2023-01-20T08:23:11;101355.88;;;2.69;100.00
62031;BME280;62035;52.094;5.112;2023-01-20T08:25:39;101355.22;;;2.65;100.00
62031;BME280;62035;52.094;5.112;2023-01-20T08:28:07;101363.78;;;2.69;100.00
62031;BME280;62035;52.094;5.112;2023-01-20T08:30:36;101356.19;;;2.94;100.00
62031;BME280;62035;52.094;5.112;2023-01-20T08:33:03;101359.03;;;2.76;100.00
62031;BME280;62035;52.094;5.112;2023-01-20T08:35:33;101364.22;;;3.07;100.00
62031;BME280;62035;52.094;5.112;2023-01-20T08:38:01;101369.88;;;3.15;100.00
62031;BME280;62035;52.094;5.112;2023-01-20T08:40:29;101374.66;;;3.23;100.00
62031;BME280;62035;52.094;5.112;2023-01-20T08:42:57;101375.34;;;3.26;100.00
62031;BME280;62035;52.094;5.112;2023-01-20T08:45:24;101378.88;;;3.41;100.00
62031;BME280;62035;52.094;5.112;2023-01-20T08:47:53;101381.91;;;3.49;100.00
62031;BME280;62035;52.094;5.112;2023-01-20T08:50:21;101383.38;;;3.39;100.00
62031;BME280;62035;52.094;5.112;2023-01-20T08:52:49;101384.22;;;3.40;100.00
62031;BME280;62035;52.094;5.112;2023-01-20T08:55:17;101387.16;;;3.49;100.00
62031;BME280;62035;52.094;5.112;2023-01-20T08:57:44;101380.50;;;3.58;100.00
62031;BME280;62035;52.094;5.112;2023-01-20T09:00:13;101381.69;;;3.38;100.00
62031;BME280;62035;52.094;5.112;2023-01-20T09:02:41;101395.28;;;3.30;100.00
62031;BME280;62035;52.094;5.112;2023-01-20T09:05:11;101392.28;;;3.37;100.00
62031;BME280;62035;52.094;5.112;2023-01-20T09:07:39;101398.75;;;3.31;100.00
62031;BME280;62035;52.094;5.112;2023-01-20T09:10:08;101398.81;;;3.45;100.00
62031;BME280;62035;52.094;5.112;2023-01-20T09:12:36;101395.72;;;3.23;100.00
62031;BME280;62035;52.094;5.112;2023-01-20T09:15:05;101393.75;;;3.26;100.00
62031;BME280;62035;52.094;5.112;2023-01-20T09:17:33;101405.94;;;3.43;100.00
62031;BME280;62035;52.094;5.112;2023-01-20T09:20:03;101404.09;;;3.59;100.00
62031;BME280;62035;52.094;5.112;2023-01-20T09:22:32;101399.44;;;3.79;100.00
62031;BME280;62035;52.094;5.112;2023-01-20T09:25:00;101402.81;;;3.37;100.00
62031;BME280;62035;52.094;5.112;2023-01-20T09:27:28;101416.56;;;3.26;100.00
62031;BME280;62035;52.094;5.112;2023-01-20T09:29:56;101417.59;;;3.23;100.00
62031;BME280;62035;52.094;5.112;2023-01-20T09:32:23;101416.66;;;3.24;100.00
62031;BME280;62035;52.094;5.112;2023-01-20T09:34:51;101416.19;;;3.48;100.00
62031;BME280;62035;52.094;5.112;2023-01-20T09:37:18;101416.13;;;3.33;100.00
62031;BME280;62035;52.094;5.112;2023-01-20T09:40:10;101420.78;;;3.14;100.00
62031;BME280;62035;52.094;5.112;2023-01-20T09:43:04;101412.56;;;3.05;100.00
62031;BME280;62035;52.094;5.112;2023-01-20T09:46:02;101431.22;;;3.16;100.00
62031;BME280;62035;52.094;5.112;2023-01-20T09:48:44;101424.94;;;3.18;100.00
62031;BME280;62035;52.094;5.112;2023-01-20T09:51:45;101437.84;;;3.07;100.00
62031;BME280;62035;52.094;5.112;2023-01-20T09:54:41;101440.38;;;3.09;100.00
62031;BME280;62035;52.094;5.112;2023-01-20T09:57:16;101438.34;;;2.98;100.00
62031;BME280;62035;52.094;5.112;2023-01-20T09:59:50;101446.66;;;3.06;100.00
62031;BME280;62035;52.094;5.112;2023-01-20T10:02:30;101446.25;;;2.98;100.00
62031;BME280;62035;52.094;5.112;2023-01-20T10:05:06;101445.81;;;3.06;100.00
62031;BME280;62035;52.094;5.112;2023-01-20T10:07:46;101458.78;;;2.93;100.00
62031;BME280;62035;52.094;5.112;2023-01-20T10:10:23;101461.06;;;2.99;100.00
62031;BME280;62035;52.094;5.112;2023-01-20T10:13:03;101466.25;;;2.85;100.00
62031;BME280;62035;52.094;5.112;2023-01-20T10:15:36;101457.16;;;2.59;100.00
62031;BME280;62035;52.094;5.112;2023-01-20T10:18:14;101466.38;;;2.50;100.00
62031;BME280;62035;52.094;5.112;2023-01-20T10:20:47;101467.63;;;2.43;100.00
62031;BME280;62035;52.094;5.112;2023-01-20T10:23:23;101464.00;;;2.46;100.00
62031;BME280;62035;52.094;5.112;2023-01-20T10:26:02;101447.00;;;2.53;100.00
62031;BME280;62035;52.094;5.112;2023-01-20T10:28:36;101436.66;;;2.34;100.00
62031;BME280;62035;52.094;5.112;2023-01-20T10:31:12;101458.75;;;2.46;100.00
62031;BME280;62035;52.094;5.112;2023-01-20T10:33:44;101464.47;;;2.21;100.00
62031;BME280;62035;52.094;5.112;2023-01-20T10:36:14;101461.53;;;2.27;100.00
62031;BME280;62035;52.094;5.112;2023-01-20T10:38:51;101457.97;;;2.28;100.00
62031;BME280;62035;52.094;5.112;2023-01-20T10:41:27;101464.94;;;2.29;100.00
62031;BME280;62035;52.094;5.112;2023-01-20T10:44:10;101460.38;;;2.48;100.00
62031;BME280;62035;52.094;5.112;2023-01-20T10:47:02;101456.28;;;2.43;100.00
62031;BME280;62035;52.094;5.112;2023-01-20T10:49:54;101452.91;;;2.41;100.00
62031;BME280;62035;52.094;5.112;2023-01-20T10:52:48;101450.47;;;2.38;100.00
62031;BME280;62035;52.094;5.112;2023-01-20T10:55:50;101457.06;;;2.45;100.00
62031;BME280;62035;52.094;5.112;2023-01-20T10:58:27;101448.84;;;2.35;100.00
62031;BME280;62035;52.094;5.112;2023-01-20T11:01:03;101457.41;;;2.39;100.00
62031;BME280;62035;52.094;5.112;2023-01-20T11:03:36;101464.63;;;2.66;100.00
62031;BME280;62035;52.094;5.112;2023-01-20T11:06:17;101458.16;;;2.41;100.00
62031;BME280;62035;52.094;5.112;2023-01-20T11:08:47;101464.00;;;2.30;100.00
62031;BME280;62035;52.094;5.112;2023-01-20T11:11:17;101469.88;;;2.51;100.00
62031;BME280;62035;52.094;5.112;2023-01-20T11:13:47;101481.63;;;2.44;100.00
62031;BME280;62035;52.094;5.112;2023-01-20T11:16:19;101462.53;;;2.24;100.00
62031;BME280;62035;52.094;5.112;2023-01-20T11:18:55;101479.66;;;2.31;100.00
62031;BME280;62035;52.094;5.112;2023-01-20T11:21:26;101486.69;;;2.31;100.00
62031;BME280;62035;52.094;5.112;2023-01-20T11:23:56;101485.59;;;2.68;100.00
62031;BME280;62035;52.094;5.112;2023-01-20T11:26:26;101489.97;;;2.83;100.00
62031;BME280;62035;52.094;5.112;2023-01-20T11:28:58;101492.28;;;2.74;100.00
62031;BME280;62035;52.094;5.112;2023-01-20T11:31:37;101481.25;;;2.83;100.00
62031;BME280;62035;52.094;5.112;2023-01-20T11:34:28;101480.69;;;2.78;100.00
62031;BME280;62035;52.094;5.112;2023-01-20T11:37:17;101489.41;;;3.10;100.00
62031;BME280;62035;52.094;5.112;2023-01-20T11:39:58;101490.81;;;3.31;100.00
62031;BME280;62035;52.094;5.112;2023-01-20T11:42:29;101491.06;;;3.42;100.00
62031;BME280;62035;52.094;5.112;2023-01-20T11:45:22;101499.47;;;3.49;100.00
62031;BME280;62035;52.094;5.112;2023-01-20T11:48:04;101479.41;;;3.16;100.00
62031;BME280;62035;52.094;5.112;2023-01-20T11:50:45;101481.25;;;2.98;100.00
62031;BME280;62035;52.094;5.112;2023-01-20T11:53:20;101471.59;;;2.83;100.00
62031;BME280;62035;52.094;5.112;2023-01-20T11:55:53;101477.69;;;2.84;100.00
62031;BME280;62035;52.094;5.112;2023-01-20T11:58:23;101471.09;;;2.77;100.00
62031;BME280;62035;52.094;5.112;2023-01-20T12:01:00;101478.38;;;2.72;100.00
62031;BME280;62035;52.094;5.112;2023-01-20T12:06:53;101469.66;;;2.71;100.00
62031;BME280;62035;52.094;5.112;2023-01-20T12:09:27;101477.00;;;2.80;100.00
62031;BME280;62035;52.094;5.112;2023-01-20T12:12:03;101480.91;;;2.89;100.00
62031;BME280;62035;52.094;5.112;2023-01-20T12:14:39;101477.88;;;3.12;100.00
62031;BME280;62035;52.094;5.112;2023-01-20T12:17:18;101466.84;;;3.06;100.00
62031;BME280;62035;52.094;5.112;2023-01-20T12:20:03;101465.31;;;3.17;100.00
62031;BME280;62035;52.094;5.112;2023-01-20T12:22:42;101467.59;;;3.08;100.00
62031;BME280;62035;52.094;5.112;2023-01-20T12:25:21;101448.78;;;2.84;100.00
62031;BME280;62035;52.094;5.112;2023-01-20T12:27:54;101470.56;;;3.01;100.00
62031;BME280;62035;52.094;5.112;2023-01-20T12:30:38;101466.69;;;3.09;100.00
62031;BME280;62035;52.094;5.112;2023-01-20T12:33:19;101481.59;;;3.08;100.00
62031;BME280;62035;52.094;5.112;2023-01-20T12:39:28;101473.91;;;3.51;100.00
62031;BME280;62035;52.094;5.112;2023-01-20T12:48:26;101478.13;;;3.08;100.00
62031;BME280;62035;52.094;5.112;2023-01-20T12:51:10;101478.91;;;3.10;100.00
62031;BME280;62035;52.094;5.112;2023-01-20T12:57:28;101490.47;;;3.53;100.00
62031;BME280;62035;52.094;5.112;2023-01-20T13:00:25;101501.19;;;3.64;100.00
62031;BME280;62035;52.094;5.112;2023-01-20T13:03:25;101496.06;;;3.47;100.00
62031;BME280;62035;52.094;5.112;2023-01-20T13:06:43;101497.34;;;3.40;100.00
62031;BME280;62035;52.094;5.112;2023-01-20T13:09:35;101487.06;;;3.51;100.00
62031;BME280;62035;52.094;5.112;2023-01-20T13:12:37;101500.44;;;3.62;100.00
62031;BME280;62035;52.094;5.112;2023-01-20T13:15:17;101506.69;;;3.75;100.00
62031;BME280;62035;52.094;5.112;2023-01-20T13:18:01;101497.63;;;3.65;100.00
62031;BME280;62035;52.094;5.112;2023-01-20T13:20:42;101504.06;;;3.75;100.00
62031;BME280;62035;52.094;5.112;2023-01-20T13:23:15;101506.50;;;3.78;100.00
62031;BME280;62035;52.094;5.112;2023-01-20T13:25:49;101507.03;;;3.69;100.00
62031;BME280;62035;52.094;5.112;2023-01-20T13:28:20;101500.31;;;3.79;100.00
62031;BME280;62035;52.094;5.112;2023-01-20T13:30:50;101509.09;;;3.94;100.00
62031;BME280;62035;52.094;5.112;2023-01-20T13:33:31;101518.84;;;3.62;100.00
62031;BME280;62035;52.094;5.112;2023-01-20T13:36:12;101513.22;;;3.54;100.00
62031;BME280;62035;52.094;5.112;2023-01-20T13:38:44;101525.97;;;3.60;100.00
62031;BME280;62035;52.094;5.112;2023-01-20T13:41:48;101516.97;;;3.64;100.00
62031;BME280;62035;52.094;5.112;2023-01-20T13:44:38;101526.81;;;3.76;100.00